Martinsville, IL (62442)

12:21 PM CDT on July 24, 2017 (GMT -0500)
Marshall Golf Course | | Change Station
Active Advisory: Flood Warning

Elev 601 ft 39.41 °N, 87.68 °W | Updated 10 seconds ago

Partly Cloudy
Partly Cloudy
80.9 °F
Feels Like 84 °F
N
3.6
Wind Variable Wind from NNW
Gusts 5.8 mph

Today
High -- | Low -- °F
--% Chance of Precip.
Yesterday
High -- | Low -- °F
Precip. -- in
Pressure 29.96 in
Visibility 10.0 miles
Clouds Few 1800 ft
Heat Index 84 °F
Dew Point 68 °F
Humidity 65%
Rainfall 0.00 in
Snow Depth Not available.
5:44 AM 8:10 PM
New Moon, 2% visible
METAR KMTO 241653Z AUTO 03007KT 10SM FEW018 27/21 A2998 RMK AO2 SLP146 T02670206
Pressure 29.96 in
Visibility 10.0 miles
Clouds Few 1800 ft
Heat Index 84 °F
Dew Point 68 °F
Humidity 65%
Rainfall 0.00 in
Snow Depth Not available.
5:44 AM 8:10 PM
New Moon, 2% visible
METAR KMTO 241653Z AUTO 03007KT 10SM FEW018 27/21 A2998 RMK AO2 SLP146 T02670206

Get Your Daily Forecast Email!

Thanks for signing up!

Be on the lookout for a verification email in your inbox.

You'll start receiving severe weather alerts in your inbox..

×

10-Day Weather Forecast

Almanac

Astronomy

Jul. 24, 2017 Rise Set
Actual Time
Civil Twilight
Nautical Twilight
Astronomical Twilight
Moon
Length of Visible Light
Length of Day
Tomorrow will be .
, % of the Moon is Illuminated

Today's Extremes

State Highs State Lows

Community

WunderPhotos

Category 6

Welcome to Category 6. This is the collective home for Weather Underground's featured writeups by Dr. Jeff Masters (right), Bob Henson (left), Chris Burt, and other regular contributors.

Nearby

Air Quality

  Air Quality AQ Index Pollutant
Not available.

Snow Depth

Station Depth Elevation

Earthquake Activity

City Distance Mag. Time & Date
Minimum magnitude displayed is 2.5.

Coastal Water Temperatures

Place Temperature

Stations

Nearby Weather Stations

Station Location Temp. Windchill Dew Point Humidity Wind Precip. Elev Updated Type
                   

Watches & Warnings

Flood Warning
Issued: 10:10 AM EDT Jul. 24, 2017 – National Weather Service

The Flood Warning continues for
the Wabash River at Terre Haute.
* From Tuesday morning to Thursday morning.
* At 10:00 am Monday the stage was 13.3 feet.
* Flood stage is 14.0 feet.
* Minor flooding is forecast.
* Forecast... rise above flood stage by tomorrow morning and continue
to rise to near 14.6 feet by Wednesday morning. The river will
fall below flood stage by Wednesday before midnight.
* At 15.0 feet... a few sloughs and a drainage have water in them in
the vicinity of sr 63 on the west side of the Wabash River.


Lat... Lon 3960 8736 3943 8740 3930 8757 3932 8763
      3945 8747 3960 8741